Time;durP1;ratioP1;P1;durP2;ratioP2;P2;SDS_P1;SDS_P2;PMS_P1;PMS_P2;Temp;Humidity;BMP_temperature;BMP_pressure;BME280_temperature;BME280_humidity;BME280_pressure;Samples;Min_cycle;Max_cycle;Signal;HPM_P1;HPM_P2
2022/09/06 00:00:10;;;;;;;0.68;0.68;;;15.20;99.90;;;;;;5069434;28;20438;-84
2022/09/06 00:02:37;;;;;;;0.70;0.70;;;15.20;99.90;;;;;;5067932;28;20431;-83
2022/09/06 00:05:05;;;;;;;0.53;0.53;;;15.20;99.90;;;;;;5046990;28;20958;-84
2022/09/06 00:07:33;;;;;;;0.52;0.52;;;15.20;99.90;;;;;;5062348;28;20419;-84
2022/09/06 00:10:00;;;;;;;0.60;0.60;;;15.20;99.90;;;;;;5043732;28;20589;-84
2022/09/06 00:12:27;;;;;;;0.57;0.57;;;15.20;99.90;;;;;;5045726;28;21223;-84
2022/09/06 00:14:57;;;;;;;0.60;0.60;;;15.20;99.90;;;;;;5044386;28;20436;-83
2022/09/06 00:17:24;;;;;;;1.15;0.82;;;15.10;99.90;;;;;;5044602;28;20443;-84
2022/09/06 00:19:50;;;;;;;2.90;0.70;;;15.10;99.90;;;;;;5063023;28;20667;-84
2022/09/06 00:22:17;;;;;;;0.60;0.60;;;15.10;99.90;;;;;;5052670;28;20442;-84
2022/09/06 00:24:44;;;;;;;0.70;0.70;;;15.10;99.90;;;;;;5049707;28;20436;-84
2022/09/06 00:27:14;;;;;;;0.60;0.60;;;15.20;99.90;;;;;;5043965;28;20435;-83
2022/09/06 00:29:41;;;;;;;0.70;0.70;;;15.20;99.90;;;;;;5064313;28;20577;-84
2022/09/06 00:32:07;;;;;;;0.40;0.40;;;15.20;99.90;;;;;;5046828;28;20435;-84
2022/09/06 00:34:34;;;;;;;0.60;0.60;;;15.30;99.90;;;;;;5067919;28;20435;-84
2022/09/06 00:37:01;;;;;;;0.65;0.65;;;15.40;99.90;;;;;;5058640;28;20522;-84
2022/09/06 00:39:28;;;;;;;0.70;0.70;;;15.40;99.90;;;;;;5048633;28;20433;-84
2022/09/06 00:41:55;;;;;;;0.60;0.60;;;15.40;99.90;;;;;;5063227;28;20491;-84
2022/09/06 00:44:22;;;;;;;0.60;0.60;;;15.30;99.90;;;;;;5047870;28;20433;-83
2022/09/06 00:46:51;;;;;;;0.60;0.60;;;15.40;99.90;;;;;;5063650;28;20448;-84
2022/09/06 00:49:28;;;;;;;0.65;0.65;;;15.50;99.90;;;;;;5063594;28;20442;-84
2022/09/06 00:52:02;;;;;;;1.10;0.50;;;15.50;99.90;;;;;;5060517;28;20422;-83
2022/09/06 00:54:29;;;;;;;0.80;0.80;;;15.50;99.90;;;;;;5059208;28;20427;-83
2022/09/06 00:56:57;;;;;;;0.70;0.70;;;15.50;99.90;;;;;;5046013;28;20973;-83
2022/09/06 00:59:27;;;;;;;0.68;0.68;;;15.50;99.90;;;;;;5045533;28;20787;-84
2022/09/06 01:01:54;;;;;;;0.60;0.60;;;15.50;99.90;;;;;;5044849;28;20439;-84
2022/09/06 01:04:22;;;;;;;0.60;0.60;;;15.50;99.90;;;;;;5067413;28;20972;-84
2022/09/06 01:07:17;;;;;;;0.87;0.87;;;15.50;99.90;;;;;;5045431;28;20437;-84
2022/09/06 01:10:09;;;;;;;0.70;0.70;;;15.60;99.90;;;;;;5059668;28;20921;-84
2022/09/06 01:13:05;;;;;;;0.70;0.60;;;15.50;99.90;;;;;;5062255;28;20431;-84
2022/09/06 01:15:51;;;;;;;1.00;0.80;;;15.50;99.90;;;;;;5044462;28;20571;-84
2022/09/06 01:18:26;;;;;;;1.20;0.70;;;15.50;99.90;;;;;;5057202;28;20841;-84
2022/09/06 01:21:02;;;;;;;0.88;0.88;;;15.50;99.90;;;;;;5061948;28;20913;-84
2022/09/06 01:24:03;;;;;;;0.60;0.60;;;15.50;99.90;;;;;;5068120;28;20485;-84
2022/09/06 01:26:41;;;;;;;0.73;0.73;;;15.50;99.90;;;;;;5044288;28;20512;-84
2022/09/06 01:29:28;;;;;;;0.70;0.70;;;15.50;99.90;;;;;;5059228;28;20518;-84
2022/09/06 01:32:08;;;;;;;0.70;0.70;;;15.50;99.90;;;;;;5057393;28;20447;-84
2022/09/06 01:34:46;;;;;;;1.00;0.90;;;15.50;99.90;;;;;;5062313;28;20431;-84
2022/09/06 01:37:19;;;;;;;0.80;0.80;;;15.50;99.90;;;;;;5064295;28;20431;-85
2022/09/06 01:39:46;;;;;;;0.73;0.73;;;15.60;99.90;;;;;;5044332;28;20440;-83
2022/09/06 01:42:21;;;;;;;0.60;0.60;;;15.70;99.90;;;;;;5067339;28;20428;-83
2022/09/06 01:44:55;;;;;;;1.77;0.88;;;15.90;99.90;;;;;;5043731;28;20533;-90
2022/09/06 01:47:36;;;;;;;0.50;0.50;;;16.50;99.90;;;;;;5060412;28;21020;-89
2022/09/06 01:50:17;;;;;;;0.60;0.60;;;17.50;99.90;;;;;;5046702;28;20926;-89
2022/09/06 01:53:09;;;;;;;0.60;0.60;;;18.30;99.90;;;;;;5047903;28;20791;-90
2022/09/06 01:55:41;;;;;;;0.87;0.40;;;18.90;99.90;;;;;;5056718;28;20434;-92
2022/09/06 01:58:37;;;;;;;0.70;0.70;;;19.30;99.90;;;;;;5068641;28;20909;-90
2022/09/06 02:01:27;;;;;;;0.50;0.50;;;19.60;99.90;;;;;;5043964;28;20797;-91
2022/09/06 02:04:05;;;;;;;0.87;0.57;;;19.70;99.90;;;;;;5063058;28;20432;-88
2022/09/06 02:06:45;;;;;;;0.70;0.70;;;19.90;99.90;;;;;;5069626;28;20439;-91
2022/09/06 02:09:17;;;;;;;0.40;0.40;;;19.90;99.90;;;;;;5051265;28;20663;-90
2022/09/06 02:11:56;;;;;;;0.40;0.40;;;19.90;99.90;;;;;;5048642;28;20441;-89
2022/09/06 02:14:40;;;;;;;0.52;0.52;;;19.90;99.90;;;;;;5069543;28;20442;-89
2022/09/06 02:17:12;;;;;;;0.70;0.40;;;19.90;99.90;;;;;;5046999;28;20828;-93
2022/09/06 02:19:46;;;;;;;0.30;0.30;;;19.90;99.90;;;;;;5061662;28;20447;-90
2022/09/06 02:22:18;;;;;;;0.40;0.40;;;19.90;99.90;;;;;;5047833;28;20435;-89
2022/09/06 02:24:48;;;;;;;0.30;0.30;;;19.90;99.90;;;;;;5045104;28;20927;-88
2022/09/06 02:27:18;;;;;;;0.40;0.40;;;20.00;99.90;;;;;;5056339;28;20472;-93
2022/09/06 02:29:45;;;;;;;0.40;0.40;;;19.90;99.90;;;;;;5067708;28;20439;-87
2022/09/06 02:32:19;;;;;;;0.30;0.30;;;20.00;99.90;;;;;;5046943;28;20797;-87
2022/09/06 02:34:49;;;;;;;0.40;0.40;;;19.90;99.90;;;;;;5064172;28;20427;-86
2022/09/06 02:37:17;;;;;;;0.40;0.40;;;19.90;99.90;;;;;;5064200;28;20431;-91
2022/09/06 02:39:43;;;;;;;0.40;0.40;;;19.90;99.90;;;;;;5062666;28;20461;-86
2022/09/06 02:42:13;;;;;;;0.40;0.40;;;19.90;99.90;;;;;;5048842;28;20547;-88
2022/09/06 02:44:40;;;;;;;0.60;0.40;;;19.80;99.90;;;;;;5064169;28;20433;-89
2022/09/06 02:47:09;;;;;;;0.40;0.40;;;19.80;99.90;;;;;;5067696;28;20496;-86
2022/09/06 02:49:36;;;;;;;0.80;0.32;;;19.60;99.90;;;;;;5043562;28;20433;-89
2022/09/06 02:52:03;;;;;;;0.43;0.43;;;19.30;99.90;;;;;;5063880;28;20441;-92
2022/09/06 02:54:30;;;;;;;0.40;0.40;;;19.10;99.90;;;;;;5066496;28;20524;-91
2022/09/06 02:56:56;;;;;;;0.30;0.30;;;18.90;99.90;;;;;;5066994;28;20430;-89
2022/09/06 02:59:23;;;;;;;0.30;0.30;;;18.50;99.90;;;;;;5065848;28;20434;-90
2022/09/06 03:01:56;;;;;;;0.60;0.30;;;18.00;99.90;;;;;;5068690;28;20948;-92
2022/09/06 03:04:26;;;;;;;0.30;0.30;;;17.70;99.90;;;;;;5047454;28;20435;-91
2022/09/06 03:06:56;;;;;;;0.40;0.40;;;17.40;99.90;;;;;;5065232;28;20442;-91
2022/09/06 03:09:23;;;;;;;0.40;0.40;;;17.20;99.90;;;;;;5052170;28;20931;-93
2022/09/06 03:11:50;;;;;;;0.28;0.28;;;17.10;99.90;;;;;;5069449;28;20494;-92
2022/09/06 03:14:18;;;;;;;0.40;0.30;;;17.00;99.90;;;;;;5049129;28;21045;-92
2022/09/06 03:16:48;;;;;;;0.23;0.23;;;16.90;99.90;;;;;;5065010;28;20456;-91
2022/09/06 03:19:16;;;;;;;0.40;0.40;;;17.00;99.90;;;;;;5066264;28;20821;-90
2022/09/06 03:21:45;;;;;;;0.40;0.40;;;16.90;99.90;;;;;;5047686;28;20421;-90
2022/09/06 03:24:15;;;;;;;0.30;0.30;;;16.80;99.90;;;;;;5053949;28;20426;-91
2022/09/06 03:26:43;;;;;;;0.43;0.43;;;16.80;99.90;;;;;;5052646;28;20439;-91
2022/09/06 03:29:09;;;;;;;0.30;0.30;;;16.80;99.90;;;;;;5054243;28;20436;-90
2022/09/06 03:31:36;;;;;;;0.50;0.50;;;16.70;99.90;;;;;;5048054;28;20429;-89
2022/09/06 03:34:05;;;;;;;0.30;0.30;;;16.80;99.90;;;;;;5055671;28;20460;-89
2022/09/06 03:36:37;;;;;;;0.22;0.22;;;16.80;99.90;;;;;;5044764;28;20506;-90
2022/09/06 03:39:04;;;;;;;1.00;0.30;;;16.70;99.90;;;;;;5049251;28;20425;-89
2022/09/06 03:41:34;;;;;;;0.30;0.30;;;16.70;99.90;;;;;;5039143;28;20446;-89
2022/09/06 03:44:03;;;;;;;0.30;0.30;;;16.60;99.90;;;;;;5040612;28;20433;-90
2022/09/06 03:46:30;;;;;;;0.20;0.20;;;16.60;99.90;;;;;;5063466;28;20431;-89
2022/09/06 03:48:57;;;;;;;0.80;0.50;;;16.60;99.90;;;;;;5062630;28;20424;-90
2022/09/06 03:51:24;;;;;;;0.40;0.40;;;16.60;99.90;;;;;;5042974;28;20883;-90
2022/09/06 03:53:51;;;;;;;0.30;0.30;;;16.70;99.90;;;;;;5062486;28;20428;-91
2022/09/06 03:56:20;;;;;;;0.30;0.30;;;16.70;99.90;;;;;;5044609;28;20435;-89
2022/09/06 03:58:47;;;;;;;0.30;0.30;;;16.60;99.90;;;;;;5062350;28;20457;-89
2022/09/06 04:01:14;;;;;;;0.32;0.30;;;16.60;99.90;;;;;;5063088;28;20438;-91
2022/09/06 04:03:40;;;;;;;0.38;0.38;;;16.60;99.90;;;;;;5044461;28;20487;-91
2022/09/06 04:06:07;;;;;;;0.47;0.47;;;16.60;99.90;;;;;;5065852;28;20433;-90
2022/09/06 04:08:39;;;;;;;0.30;0.30;;;16.70;99.90;;;;;;5067032;28;21027;-90
2022/09/06 04:11:06;;;;;;;0.35;0.35;;;16.70;99.90;;;;;;5046174;28;21101;-90
2022/09/06 04:13:34;;;;;;;1.20;0.50;;;16.80;99.90;;;;;;5068473;28;20467;-90
2022/09/06 04:16:02;;;;;;;0.32;0.32;;;16.80;99.90;;;;;;5067406;28;20735;-89
2022/09/06 04:18:29;;;;;;;0.40;0.40;;;16.80;99.90;;;;;;5065377;28;20436;-89
2022/09/06 04:20:56;;;;;;;0.30;0.30;;;16.70;99.90;;;;;;5049601;28;20467;-89
2022/09/06 04:23:25;;;;;;;0.50;0.50;;;16.70;99.90;;;;;;5060552;28;20433;-90
2022/09/06 04:25:54;;;;;;;0.40;0.40;;;16.60;99.90;;;;;;5046737;28;20531;-90
2022/09/06 04:28:22;;;;;;;0.40;0.40;;;16.50;99.90;;;;;;5041377;28;20788;-89
2022/09/06 04:30:58;;;;;;;0.30;0.30;;;16.50;99.90;;;;;;5048055;28;20435;-89
2022/09/06 04:33:32;;;;;;;0.20;0.20;;;16.40;99.90;;;;;;5049588;28;20475;-88
2022/09/06 04:36:01;;;;;;;0.40;0.40;;;16.40;99.90;;;;;;5045711;28;20815;-88
2022/09/06 04:38:29;;;;;;;0.30;0.30;;;16.30;99.90;;;;;;5045134;28;20864;-88
2022/09/06 04:40:56;;;;;;;0.50;0.50;;;16.20;99.90;;;;;;5065573;28;20433;-89
2022/09/06 04:43:23;;;;;;;0.40;0.40;;;16.10;99.90;;;;;;5067906;28;20432;-89
2022/09/06 04:45:50;;;;;;;0.32;0.32;;;15.90;99.90;;;;;;5047700;28;20790;-89
2022/09/06 04:48:17;;;;;;;0.50;0.50;;;15.70;99.90;;;;;;5041772;28;20522;-89
2022/09/06 04:50:44;;;;;;;0.40;0.40;;;15.70;99.90;;;;;;5044281;28;20446;-89
2022/09/06 04:53:11;;;;;;;0.40;0.40;;;15.50;99.90;;;;;;5047135;28;21179;-89
2022/09/06 04:55:48;;;;;;;0.35;0.35;;;15.50;99.90;;;;;;5047657;28;20437;-89
2022/09/06 04:58:15;;;;;;;0.30;0.30;;;15.50;99.90;;;;;;5047926;28;20437;-88
2022/09/06 05:00:43;;;;;;;0.45;0.45;;;15.50;99.90;;;;;;5049972;28;20423;-89
2022/09/06 05:03:10;;;;;;;0.40;0.40;;;15.50;99.90;;;;;;5040670;28;20423;-89
2022/09/06 05:05:39;;;;;;;0.40;0.40;;;15.60;99.90;;;;;;5043049;28;20754;-88
2022/09/06 05:08:06;;;;;;;0.40;0.40;;;15.60;99.90;;;;;;5060161;28;20508;-89
2022/09/06 05:10:32;;;;;;;0.60;0.60;;;15.50;99.90;;;;;;5061757;28;20948;-90
2022/09/06 05:12:59;;;;;;;0.30;0.30;;;15.50;99.90;;;;;;5043623;28;20425;-89
2022/09/06 05:15:26;;;;;;;0.40;0.40;;;15.40;99.90;;;;;;5061380;28;20462;-89
2022/09/06 05:17:59;;;;;;;0.30;0.30;;;15.40;99.90;;;;;;5067527;28;20530;-90
2022/09/06 05:20:26;;;;;;;0.40;0.40;;;15.30;99.90;;;;;;5061434;28;20438;-84
2022/09/06 05:22:53;;;;;;;0.60;0.50;;;15.30;99.90;;;;;;5057340;28;20503;-83
2022/09/06 05:25:20;;;;;;;0.40;0.40;;;15.20;99.90;;;;;;5043865;28;20430;-84
2022/09/06 05:27:47;;;;;;;0.30;0.30;;;15.20;99.90;;;;;;5067417;28;20431;-84
2022/09/06 05:30:14;;;;;;;0.40;0.40;;;15.20;99.90;;;;;;5047580;28;20431;-83
2022/09/06 05:32:41;;;;;;;1.10;0.60;;;15.30;99.90;;;;;;5058345;28;20824;-84
2022/09/06 05:35:08;;;;;;;0.55;0.55;;;15.30;99.90;;;;;;5041079;28;20432;-83
2022/09/06 05:37:34;;;;;;;0.40;0.40;;;15.40;99.90;;;;;;5041618;28;20429;-83
2022/09/06 05:40:02;;;;;;;0.40;0.40;;;15.50;99.90;;;;;;5035413;28;20445;-83
2022/09/06 05:42:29;;;;;;;0.43;0.43;;;15.60;99.90;;;;;;5057986;28;20449;-83
2022/09/06 05:44:55;;;;;;;0.60;0.60;;;15.70;99.90;;;;;;5047170;28;21023;-86
2022/09/06 05:47:22;;;;;;;0.40;0.40;;;15.80;99.90;;;;;;5046818;28;20937;-83
2022/09/06 05:49:49;;;;;;;0.50;0.50;;;15.90;99.90;;;;;;5050817;28;20423;-83
2022/09/06 05:52:17;;;;;;;0.35;0.35;;;16.10;99.90;;;;;;5044235;28;20441;-83
2022/09/06 05:54:46;;;;;;;0.40;0.40;;;16.30;99.90;;;;;;5059024;28;20432;-84
2022/09/06 05:57:13;;;;;;;0.40;0.40;;;16.50;99.90;;;;;;5064838;28;20869;-83
2022/09/06 05:59:40;;;;;;;0.30;0.30;;;16.60;99.90;;;;;;5065508;28;20434;-83
2022/09/06 06:02:07;;;;;;;0.38;0.20;;;16.70;99.90;;;;;;5047193;28;20424;-83
2022/09/06 06:04:34;;;;;;;0.40;0.40;;;16.80;99.90;;;;;;5063433;28;20909;-83
2022/09/06 06:07:01;;;;;;;0.30;0.30;;;16.80;99.90;;;;;;5055761;28;20427;-84
2022/09/06 06:09:30;;;;;;;0.50;0.50;;;16.80;99.90;;;;;;5061172;28;20523;-84
2022/09/06 06:12:00;;;;;;;0.50;0.50;;;16.90;99.90;;;;;;5055210;28;20442;-84
2022/09/06 06:14:26;;;;;;;0.30;0.30;;;17.00;99.90;;;;;;5055347;28;20510;-84
2022/09/06 06:16:53;;;;;;;0.30;0.30;;;17.40;99.90;;;;;;5050507;28;20423;-84
2022/09/06 06:19:22;;;;;;;0.40;0.40;;;17.90;99.90;;;;;;5034587;28;20480;-84
2022/09/06 06:21:52;;;;;;;0.70;0.70;;;18.60;99.90;;;;;;5041337;28;20512;-84
2022/09/06 06:24:19;;;;;;;0.45;0.45;;;19.10;99.90;;;;;;5040601;28;20457;-84
2022/09/06 06:26:45;;;;;;;0.30;0.30;;;19.70;99.90;;;;;;5039297;28;20439;-84
2022/09/06 06:29:13;;;;;;;0.38;0.38;;;20.60;99.90;;;;;;5061746;28;20438;-84
2022/09/06 06:31:40;;;;;;;0.30;0.30;;;21.40;99.90;;;;;;5063061;28;20522;-84
2022/09/06 06:34:07;;;;;;;0.70;0.60;;;22.40;99.90;;;;;;5066489;28;20908;-84
2022/09/06 06:36:36;;;;;;;0.40;0.40;;;23.40;99.90;;;;;;5060493;28;20801;-84
2022/09/06 06:39:05;;;;;;;0.32;0.32;;;24.20;99.90;;;;;;5067366;28;20435;-84
2022/09/06 06:41:32;;;;;;;0.50;0.50;;;24.80;99.90;;;;;;5051697;28;20437;-84
2022/09/06 06:44:01;;;;;;;0.30;0.30;;;25.20;99.90;;;;;;5059553;28;20523;-84
2022/09/06 06:46:30;;;;;;;0.40;0.40;;;25.60;99.90;;;;;;5064730;28;20463;-84
2022/09/06 06:49:03;;;;;;;0.50;0.50;;;25.90;99.90;;;;;;5059947;28;20430;-82
2022/09/06 06:51:32;;;;;;;0.40;0.40;;;26.00;99.90;;;;;;5061592;28;20872;-82
2022/09/06 06:53:58;;;;;;;0.30;0.30;;;25.90;99.90;;;;;;5060329;28;20431;-82
2022/09/06 06:56:37;;;;;;;0.40;0.40;;;26.30;99.90;;;;;;5035982;28;20445;-83
2022/09/06 06:59:06;;;;;;;0.30;0.30;;;26.60;99.90;;;;;;5054283;28;20455;-83
2022/09/06 07:01:34;;;;;;;0.40;0.40;;;26.40;99.90;;;;;;5057865;28;20427;-84
2022/09/06 07:04:02;;;;;;;0.22;0.22;;;25.90;99.90;;;;;;5059463;28;20707;-83
2022/09/06 07:06:29;;;;;;;0.32;0.32;;;25.60;99.90;;;;;;5055785;28;20444;-83
2022/09/06 07:09:17;;;;;;;0.40;0.40;;;25.20;99.90;;;;;;5057725;28;20429;-83
2022/09/06 07:11:47;;;;;;;0.40;0.40;;;24.70;99.90;;;;;;5057417;28;20439;-82
2022/09/06 07:14:15;;;;;;;0.60;0.40;;;24.70;99.90;;;;;;5050951;28;20431;-83
2022/09/06 07:16:42;;;;;;;0.40;0.40;;;24.60;99.90;;;;;;5066176;28;21388;-82
2022/09/06 07:19:09;;;;;;;0.40;0.40;;;24.80;99.90;;;;;;5074639;28;20479;-82
2022/09/06 07:21:57;;;;;;;0.50;0.50;;;25.30;99.90;;;;;;5043230;28;20421;-83
2022/09/06 07:24:31;;;;;;;0.40;0.40;;;26.00;99.90;;;;;;5049115;28;20424;-84
2022/09/06 07:26:58;;;;;;;0.40;0.40;;;26.30;99.90;;;;;;5057418;28;20459;-82
2022/09/06 07:29:44;;;;;;;0.60;0.55;;;25.80;99.90;;;;;;5068242;28;20416;-83
2022/09/06 07:32:11;;;;;;;0.30;0.30;;;25.10;99.90;;;;;;5046786;28;20443;-84
2022/09/06 07:34:38;;;;;;;0.30;0.30;;;24.50;99.90;;;;;;5039190;28;21023;-83
2022/09/06 07:37:05;;;;;;;0.50;0.50;;;24.30;99.90;;;;;;5056499;28;20435;-84
2022/09/06 07:39:32;;;;;;;0.40;0.40;;;24.30;99.90;;;;;;5039596;28;20994;-84
2022/09/06 07:41:58;;;;;;;0.50;0.50;;;24.50;99.90;;;;;;5062982;28;20428;-84
2022/09/06 07:44:27;;;;;;;0.50;0.50;;;24.80;99.90;;;;;;5059319;28;20518;-84
2022/09/06 07:46:54;;;;;;;0.50;0.50;;;25.30;99.90;;;;;;5055900;28;20427;-82
2022/09/06 07:49:41;;;;;;;0.40;0.40;;;25.80;99.90;;;;;;5070426;28;20403;-82
2022/09/06 07:52:27;;;;;;;0.50;0.50;;;25.30;99.90;;;;;;5060784;28;20432;-82
2022/09/06 07:55:17;;;;;;;0.60;0.60;;;24.90;99.90;;;;;;5068914;28;20862;-82
2022/09/06 07:57:44;;;;;;;0.60;0.60;;;25.00;99.90;;;;;;5041691;28;20753;-81
2022/09/06 08:00:11;;;;;;;0.50;0.50;;;25.90;99.90;;;;;;5071246;28;20429;-83
2022/09/06 08:02:40;;;;;;;0.45;0.45;;;26.50;99.90;;;;;;5060250;28;20541;-82
2022/09/06 08:05:10;;;;;;;0.47;0.47;;;26.60;99.90;;;;;;5042122;28;20429;-83
2022/09/06 08:07:57;;;;;;;0.40;0.40;;;26.70;99.90;;;;;;5067522;28;20410;-82
2022/09/06 08:10:49;;;;;;;0.45;0.45;;;26.90;99.90;;;;;;5059681;28;20423;-81
2022/09/06 08:13:18;;;;;;;0.43;0.40;;;27.20;99.90;;;;;;5051056;28;20439;-81
2022/09/06 08:15:45;;;;;;;0.90;0.45;;;27.10;99.90;;;;;;5047920;28;20748;-81
2022/09/06 08:18:12;;;;;;;0.40;0.40;;;26.70;99.90;;;;;;5070231;28;20435;-82
2022/09/06 08:20:38;;;;;;;0.43;0.43;;;26.60;99.90;;;;;;5057748;28;20423;-81
2022/09/06 08:23:09;;;;;;;0.60;0.60;;;27.10;99.90;;;;;;5053301;28;20448;-81
2022/09/06 08:25:36;;;;;;;0.50;0.50;;;27.30;99.90;;;;;;5058033;28;20447;-81
2022/09/06 08:28:03;;;;;;;0.40;0.40;;;27.90;99.90;;;;;;5067652;28;20915;-81
2022/09/06 08:30:30;;;;;;;0.47;0.47;;;28.10;99.90;;;;;;5070299;28;20419;-81
2022/09/06 08:32:56;;;;;;;0.50;0.50;;;28.10;99.90;;;;;;5070344;28;20435;-81
2022/09/06 08:35:23;;;;;;;0.40;0.40;;;28.30;99.90;;;;;;5074660;28;20514;-81
2022/09/06 08:37:50;;;;;;;0.40;0.40;;;28.40;99.90;;;;;;5070787;28;20459;-81
2022/09/06 08:40:23;;;;;;;0.32;0.32;;;28.60;99.90;;;;;;5073061;28;20550;-82
2022/09/06 08:42:50;;;;;;;0.50;0.50;;;28.60;99.90;;;;;;5069832;28;20453;-82
2022/09/06 08:45:18;;;;;;;0.40;0.40;;;27.90;99.90;;;;;;5074629;28;20987;-81
2022/09/06 08:47:45;;;;;;;0.40;0.40;;;27.70;99.90;;;;;;5075856;28;20955;-81
2022/09/06 08:50:12;;;;;;;0.45;0.45;;;27.90;99.90;;;;;;5047606;28;20435;-80
2022/09/06 08:52:47;;;;;;;0.60;0.60;;;27.90;99.90;;;;;;5071223;28;20507;-81
2022/09/06 08:55:39;;;;;;;0.70;0.70;;;27.70;99.90;;;;;;5069837;28;20714;-82
2022/09/06 08:58:38;;;;;;;0.50;0.50;;;27.30;99.90;;;;;;5073042;28;20432;-82
2022/09/06 09:01:16;;;;;;;0.40;0.40;;;27.40;99.90;;;;;;5069536;28;20429;-81
2022/09/06 09:03:43;;;;;;;0.55;0.55;;;27.50;99.90;;;;;;5048678;28;20982;-81
2022/09/06 09:06:12;;;;;;;0.50;0.50;;;27.50;99.90;;;;;;5044610;28;20837;-81
2022/09/06 09:09:01;;;;;;;0.60;0.60;;;27.50;99.90;;;;;;5064757;28;20939;-82
2022/09/06 09:11:29;;;;;;;0.90;0.60;;;27.40;99.90;;;;;;5066272;28;20588;-83
2022/09/06 09:14:02;;;;;;;0.50;0.50;;;27.30;99.90;;;;;;5074127;28;20524;-83
2022/09/06 09:16:33;;;;;;;0.50;0.50;;;27.30;99.90;;;;;;5050756;28;20444;-83
2022/09/06 09:19:04;;;;;;;0.60;0.60;;;27.60;99.90;;;;;;5053711;28;20431;-83
2022/09/06 09:21:39;;;;;;;0.50;0.50;;;27.30;99.90;;;;;;5045627;28;20749;-82
2022/09/06 09:24:15;;;;;;;0.50;0.50;;;27.10;99.90;;;;;;5065078;28;20427;-84
2022/09/06 09:27:01;;;;;;;0.40;0.40;;;27.40;99.90;;;;;;5067999;28;20921;-83
2022/09/06 09:29:28;;;;;;;0.50;0.50;;;27.90;99.90;;;;;;5041101;28;20437;-83
2022/09/06 09:32:02;;;;;;;0.40;0.40;;;27.70;99.90;;;;;;5046504;28;20499;-82
2022/09/06 09:34:33;;;;;;;0.60;0.60;;;27.80;99.90;;;;;;5058941;28;20429;-83
2022/09/06 09:37:12;;;;;;;1.80;0.73;;;28.10;99.90;;;;;;5061059;28;20433;-83
2022/09/06 09:40:00;;;;;;;0.53;0.53;;;28.30;99.90;;;;;;5058426;28;20965;-83
2022/09/06 09:42:36;;;;;;;0.60;0.60;;;28.50;99.90;;;;;;5040495;28;20437;-83
2022/09/06 09:45:21;;;;;;;1.27;0.50;;;28.80;99.90;;;;;;5043925;28;20441;-84
2022/09/06 09:47:48;;;;;;;1.20;0.50;;;28.90;99.90;;;;;;5065000;28;20499;-83
2022/09/06 09:50:33;;;;;;;0.50;0.50;;;29.10;99.90;;;;;;5056868;28;20428;-83
2022/09/06 09:53:12;;;;;;;0.60;0.60;;;29.20;99.90;;;;;;5062161;28;20444;-85
2022/09/06 09:55:40;;;;;;;0.60;0.60;;;29.30;99.90;;;;;;5067907;28;20521;-84
2022/09/06 09:58:35;;;;;;;0.50;0.50;;;29.50;99.90;;;;;;5064501;28;20428;-83
2022/09/06 10:01:21;;;;;;;0.50;0.40;;;29.30;99.90;;;;;;5067662;28;20435;-83
2022/09/06 10:03:59;;;;;;;0.80;0.80;;;29.00;99.90;;;;;;5046324;28;20444;-83
2022/09/06 10:06:55;;;;;;;0.50;0.50;;;29.10;99.90;;;;;;5061758;28;20453;-84
2022/09/06 10:09:40;;;;;;;0.60;0.60;;;28.50;99.90;;;;;;5044989;28;20447;-83
2022/09/06 10:12:27;;;;;;;0.60;0.60;;;28.40;99.90;;;;;;5057841;28;20538;-83
2022/09/06 10:14:54;;;;;;;0.60;0.60;;;28.50;99.90;;;;;;5036835;28;20537;-83
2022/09/06 10:17:33;;;;;;;0.60;0.60;;;28.40;99.90;;;;;;5059046;28;20949;-83
2022/09/06 10:20:09;;;;;;;0.50;0.50;;;28.20;99.90;;;;;;5057779;28;20434;-83
2022/09/06 10:22:51;;;;;;;0.50;0.50;;;28.20;99.90;;;;;;5039021;28;20517;-83
2022/09/06 10:25:45;;;;;;;0.55;0.55;;;28.80;99.90;;;;;;5043121;28;20869;-83
2022/09/06 10:28:30;;;;;;;0.52;0.52;;;28.80;99.90;;;;;;5049331;28;20813;-83
2022/09/06 10:31:01;;;;;;;0.60;0.60;;;29.80;99.90;;;;;;5060917;28;20492;-82
2022/09/06 10:33:55;;;;;;;0.57;0.57;;;30.10;99.90;;;;;;5041316;28;20425;-82
2022/09/06 10:36:36;;;;;;;0.70;0.70;;;30.40;99.90;;;;;;5031555;28;20457;-84
2022/09/06 10:39:09;;;;;;;0.60;0.60;;;30.60;99.90;;;;;;5041550;28;20431;-83
2022/09/06 10:41:38;;;;;;;0.55;0.55;;;30.80;99.90;;;;;;5040128;28;20425;-83
2022/09/06 10:44:11;;;;;;;0.50;0.50;;;30.70;99.90;;;;;;5036113;28;20455;-82
2022/09/06 10:46:44;;;;;;;0.60;0.60;;;30.70;99.90;;;;;;5029045;28;20432;-82
2022/09/06 10:49:18;;;;;;;0.52;0.52;;;30.70;99.90;;;;;;5063032;28;20904;-82
2022/09/06 10:51:55;;;;;;;0.67;0.67;;;31.30;99.90;;;;;;5041408;28;20795;-82
2022/09/06 10:54:23;;;;;;;0.70;0.70;;;30.90;99.90;;;;;;5054116;28;20478;-82
2022/09/06 10:57:20;;;;;;;0.75;0.75;;;31.20;99.90;;;;;;5048805;28;20435;-82
2022/09/06 11:00:12;;;;;;;0.80;0.80;;;31.50;99.90;;;;;;5047187;28;20420;-82
2022/09/06 11:02:53;;;;;;;0.65;0.65;;;31.70;99.90;;;;;;5074896;28;20936;-84
2022/09/06 11:05:46;;;;;;;0.50;0.50;;;31.10;99.90;;;;;;5050213;28;20416;-83
2022/09/06 11:08:23;;;;;;;0.50;0.50;;;30.70;99.90;;;;;;5068780;28;20439;-82
2022/09/06 11:11:24;;;;;;;0.60;0.60;;;30.40;99.90;;;;;;5069476;28;20419;-83
2022/09/06 11:13:51;;;;;;;1.83;0.63;;;30.30;99.90;;;;;;5060876;28;20424;-83
2022/09/06 11:16:32;;;;;;;0.60;0.60;;;31.00;99.90;;;;;;5068541;28;20435;-83
2022/09/06 11:19:09;;;;;;;0.80;0.80;;;31.10;99.90;;;;;;5042027;28;20439;-82
2022/09/06 11:21:49;;;;;;;0.60;0.60;;;31.00;99.50;;;;;;5050856;28;20978;-83
2022/09/06 11:24:52;;;;;;;0.65;0.65;;;31.60;99.60;;;;;;5058989;28;20884;-83
2022/09/06 11:27:28;;;;;;;0.80;0.80;;;32.30;99.60;;;;;;5060044;28;20445;-85
2022/09/06 11:29:56;;;;;;;0.82;0.82;;;32.80;98.60;;;;;;5058955;28;20518;-83
2022/09/06 11:32:47;;;;;;;1.20;0.60;;;32.70;98.30;;;;;;5043844;28;20700;-83
2022/09/06 11:35:31;;;;;;;0.50;0.50;;;32.50;98.60;;;;;;5052736;28;20450;-83
2022/09/06 11:38:02;;;;;;;1.42;0.70;;;32.00;98.40;;;;;;5066302;28;20919;-83
2022/09/06 11:40:37;;;;;;;0.70;0.70;;;32.20;98.30;;;;;;5077800;28;20441;-84
2022/09/06 11:43:03;;;;;;;0.70;0.70;;;32.20;98.00;;;;;;5057596;28;20447;-83
2022/09/06 11:45:46;;;;;;;1.00;0.57;;;32.60;98.40;;;;;;5063681;28;20570;-83
2022/09/06 11:48:22;;;;;;;0.60;0.60;;;32.80;97.80;;;;;;5065393;28;20523;-83
2022/09/06 11:50:57;;;;;;;0.70;0.70;;;33.30;97.70;;;;;;5067703;28;20429;-85
2022/09/06 11:53:34;;;;;;;0.70;0.70;;;32.60;96.90;;;;;;5049139;28;20990;-83
2022/09/06 11:56:00;;;;;;;0.60;0.60;;;32.30;97.20;;;;;;5067999;28;20436;-84
2022/09/06 11:58:41;;;;;;;0.47;0.47;;;32.30;97.60;;;;;;5050102;28;20544;-83
2022/09/06 12:01:11;;;;;;;0.50;0.50;;;32.60;97.60;;;;;;5064390;28;20864;-83
2022/09/06 12:03:47;;;;;;;0.70;0.70;;;32.80;97.30;;;;;;5049214;28;20424;-83
2022/09/06 12:06:34;;;;;;;0.80;0.80;;;32.80;97.20;;;;;;5071560;28;20454;-83
2022/09/06 12:09:21;;;;;;;0.60;0.60;;;32.60;96.90;;;;;;5064289;28;20431;-84
2022/09/06 12:11:48;;;;;;;0.70;0.70;;;32.60;96.80;;;;;;5042226;28;20772;-82
2022/09/06 12:14:44;;;;;;;0.60;0.60;;;32.60;96.10;;;;;;5065113;28;20428;-82
2022/09/06 12:17:11;;;;;;;0.70;0.70;;;32.80;96.50;;;;;;5064746;28;20916;-82
2022/09/06 12:20:07;;;;;;;0.75;0.75;;;32.70;97.60;;;;;;5066535;28;20498;-82
2022/09/06 12:22:49;;;;;;;0.80;0.80;;;32.70;96.50;;;;;;5044613;28;20433;-83
2022/09/06 12:25:34;;;;;;;0.50;0.50;;;32.80;96.20;;;;;;5078552;28;20426;-84
2022/09/06 12:28:08;;;;;;;0.63;0.63;;;32.20;95.60;;;;;;5067880;28;20459;-83
2022/09/06 12:30:40;;;;;;;0.43;0.43;;;32.70;96.30;;;;;;5074016;28;20439;-83
2022/09/06 12:33:15;;;;;;;0.60;0.60;;;32.80;95.90;;;;;;5083257;28;20504;-82
2022/09/06 12:35:42;;;;;;;0.73;0.70;;;32.80;95.90;;;;;;5052173;28;20456;-82
2022/09/06 12:38:25;;;;;;;0.50;0.50;;;33.00;95.50;;;;;;5061159;28;20435;-82
2022/09/06 12:40:57;;;;;;;0.60;0.60;;;32.90;95.60;;;;;;5074472;28;20797;-82
2022/09/06 12:43:25;;;;;;;0.60;0.60;;;32.40;95.50;;;;;;5069865;28;20463;-83
2022/09/06 12:45:54;;;;;;;0.50;0.50;;;32.50;95.90;;;;;;5052708;28;20514;-82
2022/09/06 12:48:30;;;;;;;0.50;0.50;;;32.40;95.80;;;;;;5071797;28;20457;-82
2022/09/06 12:51:14;;;;;;;0.60;0.60;;;32.20;95.60;;;;;;5043057;28;20516;-82
2022/09/06 12:54:12;;;;;;;0.50;0.50;;;32.50;95.10;;;;;;5065298;28;20441;-82
2022/09/06 12:56:38;;;;;;;1.40;0.52;;;32.60;95.30;;;;;;5055065;28;20767;-82
2022/09/06 12:59:23;;;;;;;0.50;0.50;;;33.00;95.40;;;;;;5067514;28;20431;-82
2022/09/06 13:01:59;;;;;;;0.73;0.63;;;33.50;94.90;;;;;;5063463;28;21004;-82
2022/09/06 13:04:38;;;;;;;0.60;0.60;;;34.00;95.00;;;;;;5064679;28;20436;-82
2022/09/06 13:07:10;;;;;;;0.60;0.60;;;34.40;94.10;;;;;;5044543;28;20433;-82
2022/09/06 13:09:41;;;;;;;0.55;0.52;;;34.40;93.80;;;;;;5062422;28;20757;-82
2022/09/06 13:12:34;;;;;;;0.60;0.60;;;34.40;94.20;;;;;;5061057;28;20431;-82
2022/09/06 13:15:13;;;;;;;0.60;0.60;;;34.00;93.60;;;;;;5057812;28;20438;-82
2022/09/06 13:17:41;;;;;;;0.60;0.60;;;34.10;94.30;;;;;;5061913;28;20915;-82